sensor_id;sensor_type;location;lat;lon;timestamp;P1;durP1;ratioP1;P2;durP2;ratioP2
6280;SDS011;3173;48.204;11.612;2023-05-07T00:02:10;12.37;;;7.33;;
6280;SDS011;3173;48.204;11.612;2023-05-07T00:04:36;11.80;;;6.90;;
6280;SDS011;3173;48.204;11.612;2023-05-07T00:07:03;10.70;;;7.33;;
6280;SDS011;3173;48.204;11.612;2023-05-07T00:09:30;11.37;;;7.80;;
6280;SDS011;3173;48.204;11.612;2023-05-07T00:11:56;10.03;;;6.80;;
6280;SDS011;3173;48.204;11.612;2023-05-07T00:14:23;15.40;;;7.63;;
6280;SDS011;3173;48.204;11.612;2023-05-07T00:16:49;11.70;;;7.23;;
6280;SDS011;3173;48.204;11.612;2023-05-07T00:19:15;13.40;;;8.50;;
6280;SDS011;3173;48.204;11.612;2023-05-07T00:21:41;11.47;;;8.13;;
6280;SDS011;3173;48.204;11.612;2023-05-07T00:24:07;10.60;;;7.70;;
6280;SDS011;3173;48.204;11.612;2023-05-07T00:26:33;11.40;;;7.50;;
6280;SDS011;3173;48.204;11.612;2023-05-07T00:29:00;11.77;;;7.67;;
6280;SDS011;3173;48.204;11.612;2023-05-07T00:31:26;12.77;;;7.97;;
6280;SDS011;3173;48.204;11.612;2023-05-07T00:33:52;19.93;;;8.87;;
6280;SDS011;3173;48.204;11.612;2023-05-07T00:36:18;11.23;;;8.00;;
6280;SDS011;3173;48.204;11.612;2023-05-07T00:38:44;15.60;;;8.40;;
6280;SDS011;3173;48.204;11.612;2023-05-07T00:41:10;13.77;;;8.23;;
6280;SDS011;3173;48.204;11.612;2023-05-07T00:43:36;11.23;;;8.40;;
6280;SDS011;3173;48.204;11.612;2023-05-07T00:46:02;13.50;;;9.23;;
6280;SDS011;3173;48.204;11.612;2023-05-07T00:48:28;13.83;;;8.57;;
6280;SDS011;3173;48.204;11.612;2023-05-07T00:50:55;12.80;;;7.67;;
6280;SDS011;3173;48.204;11.612;2023-05-07T00:53:22;12.63;;;8.20;;
6280;SDS011;3173;48.204;11.612;2023-05-07T00:55:48;10.47;;;7.83;;
6280;SDS011;3173;48.204;11.612;2023-05-07T00:58:14;15.20;;;8.23;;
6280;SDS011;3173;48.204;11.612;2023-05-07T01:00:41;11.80;;;7.73;;
6280;SDS011;3173;48.204;11.612;2023-05-07T01:03:07;10.60;;;7.57;;
6280;SDS011;3173;48.204;11.612;2023-05-07T01:05:33;12.83;;;7.23;;
6280;SDS011;3173;48.204;11.612;2023-05-07T01:08:00;11.30;;;8.30;;
6280;SDS011;3173;48.204;11.612;2023-05-07T01:10:26;13.70;;;7.07;;
6280;SDS011;3173;48.204;11.612;2023-05-07T01:12:55;8.70;;;7.33;;
6280;SDS011;3173;48.204;11.612;2023-05-07T01:15:22;10.50;;;8.17;;
6280;SDS011;3173;48.204;11.612;2023-05-07T01:17:48;11.80;;;8.17;;
6280;SDS011;3173;48.204;11.612;2023-05-07T01:20:14;11.87;;;8.23;;
6280;SDS011;3173;48.204;11.612;2023-05-07T01:22:41;11.37;;;7.90;;
6280;SDS011;3173;48.204;11.612;2023-05-07T01:25:08;9.27;;;6.93;;
6280;SDS011;3173;48.204;11.612;2023-05-07T01:27:35;13.43;;;8.20;;
6280;SDS011;3173;48.204;11.612;2023-05-07T01:30:04;10.53;;;8.20;;
6280;SDS011;3173;48.204;11.612;2023-05-07T01:32:45;10.40;;;7.60;;
6280;SDS011;3173;48.204;11.612;2023-05-07T01:35:15;11.00;;;7.63;;
6280;SDS011;3173;48.204;11.612;2023-05-07T01:37:43;11.13;;;7.80;;
6280;SDS011;3173;48.204;11.612;2023-05-07T01:40:09;11.77;;;8.40;;
6280;SDS011;3173;48.204;11.612;2023-05-07T01:42:35;13.10;;;7.90;;
6280;SDS011;3173;48.204;11.612;2023-05-07T01:45:01;12.57;;;8.63;;
6280;SDS011;3173;48.204;11.612;2023-05-07T01:47:27;12.27;;;8.20;;
6280;SDS011;3173;48.204;11.612;2023-05-07T01:49:55;13.90;;;9.27;;
6280;SDS011;3173;48.204;11.612;2023-05-07T01:52:22;12.90;;;8.17;;
6280;SDS011;3173;48.204;11.612;2023-05-07T01:54:49;14.80;;;9.00;;
6280;SDS011;3173;48.204;11.612;2023-05-07T01:57:15;11.93;;;8.27;;
6280;SDS011;3173;48.204;11.612;2023-05-07T01:59:41;12.70;;;8.40;;
6280;SDS011;3173;48.204;11.612;2023-05-07T02:02:07;10.97;;;8.20;;
6280;SDS011;3173;48.204;11.612;2023-05-07T02:04:34;12.50;;;8.77;;
6280;SDS011;3173;48.204;11.612;2023-05-07T02:07:00;12.10;;;9.07;;
6280;SDS011;3173;48.204;11.612;2023-05-07T02:09:26;9.53;;;7.33;;
6280;SDS011;3173;48.204;11.612;2023-05-07T02:11:52;11.83;;;8.10;;
6280;SDS011;3173;48.204;11.612;2023-05-07T02:14:18;12.80;;;7.50;;
6280;SDS011;3173;48.204;11.612;2023-05-07T02:16:45;10.63;;;7.20;;
6280;SDS011;3173;48.204;11.612;2023-05-07T02:19:11;13.57;;;8.30;;
6280;SDS011;3173;48.204;11.612;2023-05-07T02:21:37;10.30;;;7.50;;
6280;SDS011;3173;48.204;11.612;2023-05-07T02:24:04;9.00;;;7.60;;
6280;SDS011;3173;48.204;11.612;2023-05-07T02:26:30;10.83;;;7.80;;
6280;SDS011;3173;48.204;11.612;2023-05-07T02:28:56;9.03;;;7.03;;
6280;SDS011;3173;48.204;11.612;2023-05-07T02:31:23;9.23;;;6.90;;
6280;SDS011;3173;48.204;11.612;2023-05-07T02:33:49;13.90;;;8.27;;
6280;SDS011;3173;48.204;11.612;2023-05-07T02:36:15;12.67;;;8.10;;
6280;SDS011;3173;48.204;11.612;2023-05-07T02:38:41;10.33;;;7.37;;
6280;SDS011;3173;48.204;11.612;2023-05-07T02:41:07;13.40;;;7.50;;
6280;SDS011;3173;48.204;11.612;2023-05-07T02:43:33;9.13;;;7.10;;
6280;SDS011;3173;48.204;11.612;2023-05-07T02:46:03;9.80;;;7.73;;
6280;SDS011;3173;48.204;11.612;2023-05-07T02:48:30;9.33;;;7.43;;
6280;SDS011;3173;48.204;11.612;2023-05-07T02:50:56;11.57;;;7.57;;
6280;SDS011;3173;48.204;11.612;2023-05-07T02:53:23;10.13;;;7.80;;
6280;SDS011;3173;48.204;11.612;2023-05-07T02:55:51;14.70;;;8.57;;
6280;SDS011;3173;48.204;11.612;2023-05-07T02:58:17;10.73;;;7.80;;
6280;SDS011;3173;48.204;11.612;2023-05-07T03:00:44;8.77;;;7.10;;
6280;SDS011;3173;48.204;11.612;2023-05-07T03:03:10;10.70;;;7.13;;
6280;SDS011;3173;48.204;11.612;2023-05-07T03:05:36;11.27;;;7.20;;
6280;SDS011;3173;48.204;11.612;2023-05-07T03:08:02;12.43;;;7.30;;
6280;SDS011;3173;48.204;11.612;2023-05-07T03:10:29;11.40;;;8.07;;
6280;SDS011;3173;48.204;11.612;2023-05-07T03:12:55;10.07;;;7.53;;
6280;SDS011;3173;48.204;11.612;2023-05-07T03:15:21;12.23;;;7.50;;
6280;SDS011;3173;48.204;11.612;2023-05-07T03:17:48;11.90;;;8.23;;
6280;SDS011;3173;48.204;11.612;2023-05-07T03:20:14;9.73;;;7.60;;
6280;SDS011;3173;48.204;11.612;2023-05-07T03:22:40;11.23;;;7.63;;
6280;SDS011;3173;48.204;11.612;2023-05-07T03:25:07;11.10;;;7.30;;
6280;SDS011;3173;48.204;11.612;2023-05-07T03:27:33;11.43;;;7.80;;
6280;SDS011;3173;48.204;11.612;2023-05-07T03:29:59;12.63;;;7.10;;
6280;SDS011;3173;48.204;11.612;2023-05-07T03:32:26;12.57;;;8.20;;
6280;SDS011;3173;48.204;11.612;2023-05-07T03:34:52;10.67;;;7.57;;
6280;SDS011;3173;48.204;11.612;2023-05-07T03:37:18;12.57;;;8.70;;
6280;SDS011;3173;48.204;11.612;2023-05-07T03:39:44;10.87;;;8.03;;
6280;SDS011;3173;48.204;11.612;2023-05-07T03:42:10;14.37;;;8.43;;
6280;SDS011;3173;48.204;11.612;2023-05-07T03:44:36;10.00;;;7.10;;
6280;SDS011;3173;48.204;11.612;2023-05-07T03:47:03;13.90;;;9.13;;
6280;SDS011;3173;48.204;11.612;2023-05-07T03:49:29;10.17;;;7.00;;
6280;SDS011;3173;48.204;11.612;2023-05-07T03:51:55;13.77;;;7.53;;
6280;SDS011;3173;48.204;11.612;2023-05-07T03:54:22;9.67;;;7.57;;
6280;SDS011;3173;48.204;11.612;2023-05-07T03:56:48;10.10;;;8.00;;
6280;SDS011;3173;48.204;11.612;2023-05-07T03:59:14;10.10;;;8.30;;
6280;SDS011;3173;48.204;11.612;2023-05-07T04:01:40;9.30;;;7.40;;
6280;SDS011;3173;48.204;11.612;2023-05-07T04:04:06;10.03;;;6.87;;
6280;SDS011;3173;48.204;11.612;2023-05-07T04:06:32;9.17;;;6.70;;
6280;SDS011;3173;48.204;11.612;2023-05-07T04:08:59;8.30;;;6.63;;
6280;SDS011;3173;48.204;11.612;2023-05-07T04:11:25;8.20;;;6.17;;
6280;SDS011;3173;48.204;11.612;2023-05-07T04:13:51;9.07;;;6.60;;
6280;SDS011;3173;48.204;11.612;2023-05-07T04:16:17;8.43;;;7.07;;
6280;SDS011;3173;48.204;11.612;2023-05-07T04:18:43;8.50;;;6.73;;
6280;SDS011;3173;48.204;11.612;2023-05-07T04:21:16;10.10;;;6.83;;
6280;SDS011;3173;48.204;11.612;2023-05-07T04:23:42;10.50;;;6.80;;
6280;SDS011;3173;48.204;11.612;2023-05-07T04:26:08;9.33;;;7.13;;
6280;SDS011;3173;48.204;11.612;2023-05-07T04:28:35;10.33;;;7.13;;
6280;SDS011;3173;48.204;11.612;2023-05-07T04:31:01;22.63;;;6.90;;
6280;SDS011;3173;48.204;11.612;2023-05-07T04:33:27;9.67;;;6.87;;
6280;SDS011;3173;48.204;11.612;2023-05-07T04:35:53;12.67;;;7.20;;
6280;SDS011;3173;48.204;11.612;2023-05-07T04:38:20;12.20;;;7.03;;
6280;SDS011;3173;48.204;11.612;2023-05-07T04:40:46;13.30;;;6.47;;
6280;SDS011;3173;48.204;11.612;2023-05-07T04:43:12;9.27;;;6.23;;
6280;SDS011;3173;48.204;11.612;2023-05-07T04:45:39;14.07;;;7.07;;
6280;SDS011;3173;48.204;11.612;2023-05-07T04:48:06;9.63;;;6.67;;
6280;SDS011;3173;48.204;11.612;2023-05-07T04:50:32;8.43;;;6.57;;
6280;SDS011;3173;48.204;11.612;2023-05-07T04:52:58;10.63;;;6.70;;
6280;SDS011;3173;48.204;11.612;2023-05-07T04:55:25;12.63;;;5.77;;
6280;SDS011;3173;48.204;11.612;2023-05-07T04:57:51;7.13;;;5.53;;
6280;SDS011;3173;48.204;11.612;2023-05-07T05:00:18;9.17;;;5.80;;
6280;SDS011;3173;48.204;11.612;2023-05-07T05:02:45;7.13;;;5.43;;
6280;SDS011;3173;48.204;11.612;2023-05-07T05:05:11;7.93;;;6.07;;
6280;SDS011;3173;48.204;11.612;2023-05-07T05:07:37;8.47;;;5.70;;
6280;SDS011;3173;48.204;11.612;2023-05-07T05:10:04;5.47;;;4.83;;
6280;SDS011;3173;48.204;11.612;2023-05-07T05:12:31;7.87;;;6.03;;
6280;SDS011;3173;48.204;11.612;2023-05-07T05:14:57;7.53;;;5.53;;
6280;SDS011;3173;48.204;11.612;2023-05-07T05:17:23;6.63;;;5.20;;
6280;SDS011;3173;48.204;11.612;2023-05-07T05:19:49;7.13;;;5.03;;
6280;SDS011;3173;48.204;11.612;2023-05-07T05:22:16;11.60;;;4.93;;
6280;SDS011;3173;48.204;11.612;2023-05-07T05:24:42;9.50;;;4.70;;
6280;SDS011;3173;48.204;11.612;2023-05-07T05:27:08;5.97;;;4.20;;
6280;SDS011;3173;48.204;11.612;2023-05-07T05:29:34;7.07;;;4.53;;
6280;SDS011;3173;48.204;11.612;2023-05-07T05:32:00;6.83;;;4.07;;
6280;SDS011;3173;48.204;11.612;2023-05-07T05:34:26;5.57;;;4.13;;
6280;SDS011;3173;48.204;11.612;2023-05-07T05:36:52;8.37;;;4.57;;
6280;SDS011;3173;48.204;11.612;2023-05-07T05:39:18;6.23;;;4.30;;
6280;SDS011;3173;48.204;11.612;2023-05-07T05:41:45;5.30;;;4.47;;
6280;SDS011;3173;48.204;11.612;2023-05-07T05:44:11;8.60;;;4.27;;
6280;SDS011;3173;48.204;11.612;2023-05-07T05:46:37;5.83;;;4.50;;
6280;SDS011;3173;48.204;11.612;2023-05-07T05:49:03;5.10;;;4.27;;
6280;SDS011;3173;48.204;11.612;2023-05-07T05:51:29;6.50;;;5.23;;
6280;SDS011;3173;48.204;11.612;2023-05-07T05:53:55;5.60;;;4.00;;
6280;SDS011;3173;48.204;11.612;2023-05-07T05:56:21;6.90;;;4.87;;
6280;SDS011;3173;48.204;11.612;2023-05-07T05:58:48;5.63;;;4.03;;
6280;SDS011;3173;48.204;11.612;2023-05-07T06:01:14;5.53;;;3.97;;
6280;SDS011;3173;48.204;11.612;2023-05-07T06:03:40;5.20;;;3.73;;
6280;SDS011;3173;48.204;11.612;2023-05-07T06:06:06;5.40;;;4.50;;
6280;SDS011;3173;48.204;11.612;2023-05-07T06:08:32;6.00;;;4.70;;
6280;SDS011;3173;48.204;11.612;2023-05-07T06:10:58;6.93;;;5.00;;
6280;SDS011;3173;48.204;11.612;2023-05-07T06:13:25;5.57;;;4.20;;
6280;SDS011;3173;48.204;11.612;2023-05-07T06:15:51;5.43;;;3.83;;
6280;SDS011;3173;48.204;11.612;2023-05-07T06:18:17;5.67;;;4.30;;
6280;SDS011;3173;48.204;11.612;2023-05-07T06:20:43;6.07;;;4.73;;
6280;SDS011;3173;48.204;11.612;2023-05-07T06:23:09;6.00;;;5.00;;
6280;SDS011;3173;48.204;11.612;2023-05-07T06:25:35;5.07;;;4.40;;
6280;SDS011;3173;48.204;11.612;2023-05-07T06:28:01;6.37;;;4.40;;
6280;SDS011;3173;48.204;11.612;2023-05-07T06:30:27;6.13;;;4.90;;
6280;SDS011;3173;48.204;11.612;2023-05-07T06:32:54;6.13;;;3.83;;
6280;SDS011;3173;48.204;11.612;2023-05-07T06:35:20;5.00;;;3.50;;
6280;SDS011;3173;48.204;11.612;2023-05-07T06:37:46;7.97;;;3.93;;
6280;SDS011;3173;48.204;11.612;2023-05-07T06:40:12;4.70;;;3.70;;
6280;SDS011;3173;48.204;11.612;2023-05-07T06:42:38;6.47;;;4.10;;
6280;SDS011;3173;48.204;11.612;2023-05-07T06:45:05;7.13;;;4.30;;
6280;SDS011;3173;48.204;11.612;2023-05-07T06:47:31;6.60;;;4.07;;
6280;SDS011;3173;48.204;11.612;2023-05-07T06:49:57;8.53;;;4.17;;
6280;SDS011;3173;48.204;11.612;2023-05-07T06:52:24;7.60;;;3.97;;
6280;SDS011;3173;48.204;11.612;2023-05-07T06:54:50;6.23;;;3.90;;
6280;SDS011;3173;48.204;11.612;2023-05-07T06:57:16;6.40;;;4.30;;
6280;SDS011;3173;48.204;11.612;2023-05-07T06:59:42;6.17;;;3.97;;
6280;SDS011;3173;48.204;11.612;2023-05-07T07:02:08;9.30;;;3.80;;
6280;SDS011;3173;48.204;11.612;2023-05-07T07:04:34;5.80;;;3.80;;
6280;SDS011;3173;48.204;11.612;2023-05-07T07:07:00;5.70;;;3.87;;
6280;SDS011;3173;48.204;11.612;2023-05-07T07:09:27;5.20;;;3.90;;
6280;SDS011;3173;48.204;11.612;2023-05-07T07:11:53;7.20;;;3.70;;
6280;SDS011;3173;48.204;11.612;2023-05-07T07:14:19;5.07;;;3.80;;
6280;SDS011;3173;48.204;11.612;2023-05-07T07:16:45;5.57;;;3.70;;
6280;SDS011;3173;48.204;11.612;2023-05-07T07:19:12;5.17;;;3.70;;
6280;SDS011;3173;48.204;11.612;2023-05-07T07:21:40;5.10;;;3.73;;
6280;SDS011;3173;48.204;11.612;2023-05-07T07:24:06;4.60;;;3.93;;
6280;SDS011;3173;48.204;11.612;2023-05-07T07:26:32;5.60;;;4.00;;
6280;SDS011;3173;48.204;11.612;2023-05-07T07:28:58;9.00;;;4.07;;
6280;SDS011;3173;48.204;11.612;2023-05-07T07:31:24;7.00;;;4.70;;
6280;SDS011;3173;48.204;11.612;2023-05-07T07:33:50;5.20;;;4.20;;
6280;SDS011;3173;48.204;11.612;2023-05-07T07:36:17;6.60;;;4.77;;
6280;SDS011;3173;48.204;11.612;2023-05-07T07:38:43;7.97;;;4.50;;
6280;SDS011;3173;48.204;11.612;2023-05-07T07:41:09;7.13;;;3.93;;
6280;SDS011;3173;48.204;11.612;2023-05-07T07:43:35;6.20;;;3.87;;
6280;SDS011;3173;48.204;11.612;2023-05-07T07:46:01;6.87;;;4.47;;
6280;SDS011;3173;48.204;11.612;2023-05-07T07:48:27;5.10;;;4.30;;
6280;SDS011;3173;48.204;11.612;2023-05-07T07:50:53;5.53;;;4.10;;
6280;SDS011;3173;48.204;11.612;2023-05-07T07:53:19;8.47;;;4.63;;
6280;SDS011;3173;48.204;11.612;2023-05-07T07:55:45;5.30;;;3.93;;
6280;SDS011;3173;48.204;11.612;2023-05-07T07:58:11;7.80;;;4.50;;
6280;SDS011;3173;48.204;11.612;2023-05-07T08:00:37;5.77;;;4.40;;
6280;SDS011;3173;48.204;11.612;2023-05-07T08:03:03;4.23;;;3.63;;
6280;SDS011;3173;48.204;11.612;2023-05-07T08:05:30;6.00;;;3.23;;
6280;SDS011;3173;48.204;11.612;2023-05-07T08:07:56;6.40;;;4.07;;
6280;SDS011;3173;48.204;11.612;2023-05-07T08:10:23;8.20;;;4.37;;
6280;SDS011;3173;48.204;11.612;2023-05-07T08:12:49;5.40;;;3.80;;
6280;SDS011;3173;48.204;11.612;2023-05-07T08:15:15;6.87;;;4.07;;
6280;SDS011;3173;48.204;11.612;2023-05-07T08:17:41;10.23;;;4.60;;
6280;SDS011;3173;48.204;11.612;2023-05-07T08:20:07;6.37;;;3.70;;
6280;SDS011;3173;48.204;11.612;2023-05-07T08:22:34;5.63;;;3.60;;
6280;SDS011;3173;48.204;11.612;2023-05-07T08:25:00;9.70;;;3.87;;
6280;SDS011;3173;48.204;11.612;2023-05-07T08:27:26;4.30;;;3.20;;
6280;SDS011;3173;48.204;11.612;2023-05-07T08:29:52;7.00;;;3.87;;
6280;SDS011;3173;48.204;11.612;2023-05-07T08:32:18;9.93;;;3.70;;
6280;SDS011;3173;48.204;11.612;2023-05-07T08:34:44;5.10;;;3.60;;
6280;SDS011;3173;48.204;11.612;2023-05-07T08:37:11;4.67;;;3.40;;
6280;SDS011;3173;48.204;11.612;2023-05-07T08:39:37;4.87;;;3.60;;
6280;SDS011;3173;48.204;11.612;2023-05-07T08:42:03;5.07;;;3.10;;
6280;SDS011;3173;48.204;11.612;2023-05-07T08:44:32;9.80;;;3.90;;
6280;SDS011;3173;48.204;11.612;2023-05-07T08:47:00;6.90;;;3.80;;
6280;SDS011;3173;48.204;11.612;2023-05-07T08:49:27;3.97;;;3.10;;
6280;SDS011;3173;48.204;11.612;2023-05-07T08:51:53;6.17;;;3.37;;
6280;SDS011;3173;48.204;11.612;2023-05-07T08:54:20;6.30;;;3.67;;
6280;SDS011;3173;48.204;11.612;2023-05-07T08:56:46;6.93;;;2.93;;
6280;SDS011;3173;48.204;11.612;2023-05-07T08:59:12;4.40;;;3.00;;
6280;SDS011;3173;48.204;11.612;2023-05-07T09:01:38;4.50;;;2.70;;
6280;SDS011;3173;48.204;11.612;2023-05-07T09:04:04;4.23;;;3.20;;
6280;SDS011;3173;48.204;11.612;2023-05-07T09:06:32;6.93;;;3.80;;
6280;SDS011;3173;48.204;11.612;2023-05-07T09:08:57;4.37;;;2.70;;
6280;SDS011;3173;48.204;11.612;2023-05-07T09:11:26;6.13;;;3.47;;
6280;SDS011;3173;48.204;11.612;2023-05-07T09:13:53;3.90;;;3.00;;
6280;SDS011;3173;48.204;11.612;2023-05-07T09:16:21;5.73;;;3.23;;
6280;SDS011;3173;48.204;11.612;2023-05-07T09:18:48;3.40;;;2.70;;
6280;SDS011;3173;48.204;11.612;2023-05-07T09:21:16;8.83;;;3.70;;
6280;SDS011;3173;48.204;11.612;2023-05-07T09:23:42;7.40;;;3.13;;
6280;SDS011;3173;48.204;11.612;2023-05-07T09:26:08;5.33;;;2.57;;
6280;SDS011;3173;48.204;11.612;2023-05-07T09:28:42;4.93;;;3.30;;
6280;SDS011;3173;48.204;11.612;2023-05-07T09:31:10;4.73;;;3.27;;
6280;SDS011;3173;48.204;11.612;2023-05-07T09:33:36;4.67;;;4.27;;
6280;SDS011;3173;48.204;11.612;2023-05-07T09:36:03;7.60;;;3.80;;
6280;SDS011;3173;48.204;11.612;2023-05-07T09:38:30;5.40;;;3.07;;
6280;SDS011;3173;48.204;11.612;2023-05-07T09:43:31;4.43;;;3.10;;
6280;SDS011;3173;48.204;11.612;2023-05-07T09:45:57;3.73;;;2.17;;
6280;SDS011;3173;48.204;11.612;2023-05-07T09:48:25;4.57;;;3.10;;
6280;SDS011;3173;48.204;11.612;2023-05-07T09:50:51;4.97;;;2.70;;
6280;SDS011;3173;48.204;11.612;2023-05-07T09:53:21;4.30;;;2.20;;
6280;SDS011;3173;48.204;11.612;2023-05-07T09:55:47;4.97;;;2.43;;
6280;SDS011;3173;48.204;11.612;2023-05-07T09:58:14;4.63;;;1.97;;
6280;SDS011;3173;48.204;11.612;2023-05-07T10:00:41;3.50;;;1.83;;
6280;SDS011;3173;48.204;11.612;2023-05-07T10:03:08;3.20;;;2.33;;
6280;SDS011;3173;48.204;11.612;2023-05-07T10:05:34;5.23;;;2.30;;
6280;SDS011;3173;48.204;11.612;2023-05-07T10:08:01;4.87;;;2.10;;
6280;SDS011;3173;48.204;11.612;2023-05-07T10:10:28;5.03;;;2.47;;
6280;SDS011;3173;48.204;11.612;2023-05-07T10:12:55;2.77;;;2.00;;
6280;SDS011;3173;48.204;11.612;2023-05-07T10:15:21;2.60;;;1.63;;
6280;SDS011;3173;48.204;11.612;2023-05-07T10:17:49;3.07;;;1.80;;
6280;SDS011;3173;48.204;11.612;2023-05-07T10:20:17;3.33;;;2.43;;
6280;SDS011;3173;48.204;11.612;2023-05-07T10:22:44;2.17;;;1.27;;
6280;SDS011;3173;48.204;11.612;2023-05-07T10:27:47;6.33;;;2.00;;
6280;SDS011;3173;48.204;11.612;2023-05-07T10:32:48;6.00;;;2.03;;
6280;SDS011;3173;48.204;11.612;2023-05-07T10:35:19;4.87;;;2.63;;
6280;SDS011;3173;48.204;11.612;2023-05-07T10:37:46;4.33;;;2.23;;
6280;SDS011;3173;48.204;11.612;2023-05-07T10:40:12;3.33;;;2.53;;
6280;SDS011;3173;48.204;11.612;2023-05-07T10:42:49;2.93;;;2.20;;
6280;SDS011;3173;48.204;11.612;2023-05-07T10:45:19;5.07;;;2.70;;
6280;SDS011;3173;48.204;11.612;2023-05-07T10:50:29;4.33;;;2.00;;
6280;SDS011;3173;48.204;11.612;2023-05-07T10:56:39;4.30;;;2.23;;
6280;SDS011;3173;48.204;11.612;2023-05-07T10:58:46;3.80;;;2.33;;
6280;SDS011;3173;48.204;11.612;2023-05-07T11:01:13;11.93;;;2.60;;
6280;SDS011;3173;48.204;11.612;2023-05-07T11:15:12;4.10;;;2.63;;
6280;SDS011;3173;48.204;11.612;2023-05-07T11:17:56;5.20;;;2.57;;
6280;SDS011;3173;48.204;11.612;2023-05-07T11:20:44;3.30;;;2.50;;
6280;SDS011;3173;48.204;11.612;2023-05-07T11:26:06;3.13;;;1.30;;
6280;SDS011;3173;48.204;11.612;2023-05-07T11:28:39;2.37;;;1.43;;
6280;SDS011;3173;48.204;11.612;2023-05-07T11:31:05;2.83;;;1.80;;
6280;SDS011;3173;48.204;11.612;2023-05-07T11:33:32;2.70;;;1.97;;
6280;SDS011;3173;48.204;11.612;2023-05-07T11:36:03;4.03;;;1.60;;
6280;SDS011;3173;48.204;11.612;2023-05-07T11:38:29;3.10;;;1.70;;
6280;SDS011;3173;48.204;11.612;2023-05-07T11:40:56;3.30;;;2.07;;
6280;SDS011;3173;48.204;11.612;2023-05-07T11:43:23;2.80;;;1.80;;
6280;SDS011;3173;48.204;11.612;2023-05-07T11:45:50;2.93;;;1.70;;
6280;SDS011;3173;48.204;11.612;2023-05-07T11:48:16;2.60;;;1.63;;
6280;SDS011;3173;48.204;11.612;2023-05-07T11:50:52;2.13;;;1.47;;
6280;SDS011;3173;48.204;11.612;2023-05-07T11:53:19;2.90;;;1.90;;
6280;SDS011;3173;48.204;11.612;2023-05-07T11:55:46;3.13;;;1.73;;
6280;SDS011;3173;48.204;11.612;2023-05-07T11:58:12;3.87;;;1.70;;
6280;SDS011;3173;48.204;11.612;2023-05-07T12:00:38;2.50;;;1.57;;
6280;SDS011;3173;48.204;11.612;2023-05-07T12:03:04;2.80;;;1.33;;
6280;SDS011;3173;48.204;11.612;2023-05-07T12:05:31;4.00;;;1.73;;
6280;SDS011;3173;48.204;11.612;2023-05-07T12:07:57;2.93;;;1.50;;
6280;SDS011;3173;48.204;11.612;2023-05-07T12:10:23;2.50;;;1.70;;
6280;SDS011;3173;48.204;11.612;2023-05-07T12:12:50;2.10;;;1.20;;
6280;SDS011;3173;48.204;11.612;2023-05-07T12:15:16;3.67;;;1.10;;
6280;SDS011;3173;48.204;11.612;2023-05-07T12:17:43;1.83;;;1.57;;
6280;SDS011;3173;48.204;11.612;2023-05-07T12:20:09;3.53;;;1.30;;
6280;SDS011;3173;48.204;11.612;2023-05-07T12:22:36;2.93;;;1.30;;
6280;SDS011;3173;48.204;11.612;2023-05-07T12:25:02;4.27;;;1.80;;
6280;SDS011;3173;48.204;11.612;2023-05-07T12:27:28;2.47;;;1.60;;
6280;SDS011;3173;48.204;11.612;2023-05-07T12:29:56;2.23;;;0.90;;
6280;SDS011;3173;48.204;11.612;2023-05-07T12:32:23;3.90;;;0.87;;
6280;SDS011;3173;48.204;11.612;2023-05-07T12:34:49;2.27;;;1.03;;
6280;SDS011;3173;48.204;11.612;2023-05-07T12:37:16;2.30;;;0.87;;
6280;SDS011;3173;48.204;11.612;2023-05-07T12:39:48;1.87;;;1.00;;
6280;SDS011;3173;48.204;11.612;2023-05-07T12:42:15;3.90;;;1.10;;
6280;SDS011;3173;48.204;11.612;2023-05-07T12:44:43;2.53;;;1.00;;
6280;SDS011;3173;48.204;11.612;2023-05-07T12:47:11;5.03;;;1.20;;
6280;SDS011;3173;48.204;11.612;2023-05-07T12:49:37;2.37;;;1.00;;
6280;SDS011;3173;48.204;11.612;2023-05-07T12:52:05;3.40;;;1.50;;
6280;SDS011;3173;48.204;11.612;2023-05-07T12:54:32;1.90;;;1.07;;
6280;SDS011;3173;48.204;11.612;2023-05-07T13:02:00;1.47;;;1.10;;
6280;SDS011;3173;48.204;11.612;2023-05-07T13:04:26;2.23;;;1.20;;
6280;SDS011;3173;48.204;11.612;2023-05-07T13:06:52;2.00;;;1.40;;
6280;SDS011;3173;48.204;11.612;2023-05-07T13:09:18;1.70;;;1.20;;
6280;SDS011;3173;48.204;11.612;2023-05-07T13:11:44;2.93;;;1.10;;
6280;SDS011;3173;48.204;11.612;2023-05-07T13:14:10;2.23;;;1.10;;
6280;SDS011;3173;48.204;11.612;2023-05-07T13:16:36;1.90;;;1.30;;
6280;SDS011;3173;48.204;11.612;2023-05-07T13:19:03;2.20;;;1.63;;
6280;SDS011;3173;48.204;11.612;2023-05-07T13:21:29;3.20;;;1.40;;
6280;SDS011;3173;48.204;11.612;2023-05-07T13:23:58;5.77;;;2.60;;
6280;SDS011;3173;48.204;11.612;2023-05-07T13:26:25;3.97;;;1.97;;
6280;SDS011;3173;48.204;11.612;2023-05-07T13:28:52;2.63;;;1.90;;
6280;SDS011;3173;48.204;11.612;2023-05-07T13:31:18;2.73;;;1.93;;
6280;SDS011;3173;48.204;11.612;2023-05-07T13:33:46;1.87;;;1.40;;
6280;SDS011;3173;48.204;11.612;2023-05-07T13:36:12;2.90;;;1.80;;
6280;SDS011;3173;48.204;11.612;2023-05-07T13:38:41;3.30;;;1.47;;
6280;SDS011;3173;48.204;11.612;2023-05-07T13:41:07;3.07;;;1.80;;
6280;SDS011;3173;48.204;11.612;2023-05-07T13:43:33;2.67;;;1.80;;
6280;SDS011;3173;48.204;11.612;2023-05-07T13:45:59;2.67;;;1.73;;
6280;SDS011;3173;48.204;11.612;2023-05-07T13:48:26;2.30;;;1.70;;
6280;SDS011;3173;48.204;11.612;2023-05-07T13:50:53;3.20;;;1.83;;
6280;SDS011;3173;48.204;11.612;2023-05-07T13:53:19;1.97;;;1.57;;
6280;SDS011;3173;48.204;11.612;2023-05-07T13:55:45;2.13;;;1.30;;
6280;SDS011;3173;48.204;11.612;2023-05-07T13:58:11;2.67;;;1.43;;
6280;SDS011;3173;48.204;11.612;2023-05-07T14:00:37;3.93;;;2.10;;
6280;SDS011;3173;48.204;11.612;2023-05-07T14:03:04;5.47;;;1.77;;
6280;SDS011;3173;48.204;11.612;2023-05-07T14:05:30;3.07;;;2.13;;
6280;SDS011;3173;48.204;11.612;2023-05-07T14:07:57;3.10;;;1.70;;
6280;SDS011;3173;48.204;11.612;2023-05-07T14:10:23;5.87;;;3.40;;
6280;SDS011;3173;48.204;11.612;2023-05-07T14:12:50;4.17;;;2.33;;
6280;SDS011;3173;48.204;11.612;2023-05-07T14:15:17;3.53;;;2.47;;
6280;SDS011;3173;48.204;11.612;2023-05-07T14:17:43;3.50;;;2.00;;
6280;SDS011;3173;48.204;11.612;2023-05-07T14:20:10;3.23;;;2.50;;
6280;SDS011;3173;48.204;11.612;2023-05-07T14:22:36;6.13;;;4.60;;
6280;SDS011;3173;48.204;11.612;2023-05-07T14:25:02;4.07;;;2.60;;
6280;SDS011;3173;48.204;11.612;2023-05-07T14:27:28;6.43;;;5.70;;
6280;SDS011;3173;48.204;11.612;2023-05-07T14:29:54;11.57;;;9.93;;
6280;SDS011;3173;48.204;11.612;2023-05-07T14:32:21;3.40;;;2.00;;
6280;SDS011;3173;48.204;11.612;2023-05-07T14:34:47;3.50;;;2.30;;
6280;SDS011;3173;48.204;11.612;2023-05-07T14:37:13;4.67;;;3.40;;
6280;SDS011;3173;48.204;11.612;2023-05-07T14:39:40;11.97;;;2.60;;
6280;SDS011;3173;48.204;11.612;2023-05-07T14:42:06;5.73;;;2.73;;
6280;SDS011;3173;48.204;11.612;2023-05-07T14:44:33;2.33;;;1.50;;
6280;SDS011;3173;48.204;11.612;2023-05-07T14:46:59;3.60;;;1.77;;
6280;SDS011;3173;48.204;11.612;2023-05-07T14:49:25;4.67;;;2.10;;
6280;SDS011;3173;48.204;11.612;2023-05-07T14:51:51;3.77;;;2.03;;
6280;SDS011;3173;48.204;11.612;2023-05-07T14:54:17;3.60;;;2.33;;
6280;SDS011;3173;48.204;11.612;2023-05-07T14:56:43;5.70;;;3.43;;
6280;SDS011;3173;48.204;11.612;2023-05-07T14:59:09;3.77;;;2.00;;
6280;SDS011;3173;48.204;11.612;2023-05-07T15:01:36;4.20;;;3.27;;
6280;SDS011;3173;48.204;11.612;2023-05-07T15:04:03;5.70;;;2.50;;
6280;SDS011;3173;48.204;11.612;2023-05-07T15:06:29;2.83;;;1.93;;
6280;SDS011;3173;48.204;11.612;2023-05-07T15:08:56;2.10;;;1.70;;
6280;SDS011;3173;48.204;11.612;2023-05-07T15:11:21;2.10;;;1.30;;
6280;SDS011;3173;48.204;11.612;2023-05-07T15:13:47;4.77;;;1.70;;
6280;SDS011;3173;48.204;11.612;2023-05-07T15:16:13;5.40;;;1.90;;
6280;SDS011;3173;48.204;11.612;2023-05-07T15:18:39;2.80;;;1.60;;
6280;SDS011;3173;48.204;11.612;2023-05-07T15:21:05;3.50;;;1.80;;
6280;SDS011;3173;48.204;11.612;2023-05-07T15:23:31;2.20;;;1.30;;
6280;SDS011;3173;48.204;11.612;2023-05-07T15:25:57;5.50;;;1.77;;
6280;SDS011;3173;48.204;11.612;2023-05-07T15:28:24;5.00;;;1.30;;